createdAt,value
2023-05-13T00:01:39.145Z,100721.01
2023-05-13T00:04:10.430Z,100723.89
2023-05-13T00:06:41.121Z,100721.88
2023-05-13T00:09:11.783Z,100722.98
2023-05-13T00:11:42.040Z,100715.48
2023-05-13T00:14:12.463Z,100715.88
2023-05-13T00:16:43.372Z,100711.73
2023-05-13T00:19:13.888Z,100713.02
2023-05-13T00:21:44.568Z,100709.58
2023-05-13T00:24:14.869Z,100711.04
2023-05-13T00:26:45.163Z,100708.27
2023-05-13T00:29:15.893Z,100707.60
2023-05-13T00:31:46.293Z,100709.04
2023-05-13T00:34:17.054Z,100707.13
2023-05-13T00:36:47.934Z,100704.55
2023-05-13T00:39:18.752Z,100710.36
2023-05-13T00:41:49.275Z,100711.10
2023-05-13T00:44:19.600Z,100718.84
2023-05-13T00:46:50.674Z,100723.60
2023-05-13T00:49:21.104Z,100730.30
2023-05-13T00:51:52.974Z,100739.45
2023-05-13T00:54:25.304Z,100742.48
2023-05-13T00:56:59.516Z,100744.96
2023-05-13T00:59:31.662Z,100747.30
2023-05-13T01:02:11.918Z,100751.55
2023-05-13T01:04:51.739Z,100755.48
2023-05-13T01:07:35.395Z,100757.46
2023-05-13T01:10:17.703Z,100757.16
2023-05-13T01:12:52.878Z,100760.37
2023-05-13T01:15:26.434Z,100763.74
2023-05-13T01:18:01.405Z,100767.99
2023-05-13T01:20:34.027Z,100766.85
2023-05-13T01:23:06.279Z,100768.49
2023-05-13T01:25:37.301Z,100767.05
2023-05-13T01:28:08.294Z,100766.34
2023-05-13T01:30:40.222Z,100767.16
2023-05-13T01:33:11.687Z,100768.13
2023-05-13T01:35:42.228Z,100772.19
2023-05-13T01:38:15.168Z,100770.14
2023-05-13T01:40:47.844Z,100768.77
2023-05-13T01:43:18.481Z,100771.80
2023-05-13T01:45:51.622Z,100769.60
2023-05-13T01:48:22.112Z,100772.95
2023-05-13T01:50:53.382Z,100774.27
2023-05-13T01:53:23.624Z,100773.52
2023-05-13T01:55:55.770Z,100770.26
2023-05-13T01:58:26.260Z,100774.31
2023-05-13T02:00:57.269Z,100773.31
2023-05-13T02:03:27.619Z,100771.92
2023-05-13T02:05:58.188Z,100772.02
2023-05-13T02:08:28.506Z,100774.38
2023-05-13T02:10:59.705Z,100776.67
2023-05-13T02:13:31.879Z,100777.02
2023-05-13T02:16:02.469Z,100774.61
2023-05-13T02:18:32.811Z,100771.65
2023-05-13T02:21:03.249Z,100775.87
2023-05-13T02:23:33.645Z,100775.89
2023-05-13T02:26:05.923Z,100776.25
2023-05-13T02:28:36.502Z,100775.57
2023-05-13T02:31:06.874Z,100772.10
2023-05-13T02:33:37.802Z,100769.84
2023-05-13T02:36:08.978Z,100767.39
2023-05-13T02:38:39.756Z,100769.48
2023-05-13T02:41:10.775Z,100768.61
2023-05-13T02:43:41.309Z,100766.70
2023-05-13T02:46:11.646Z,100764.42
2023-05-13T02:48:41.954Z,100766.70
2023-05-13T02:51:12.266Z,100763.90
2023-05-13T02:53:42.725Z,100763.39
2023-05-13T02:56:16.338Z,100768.61
2023-05-13T02:58:46.803Z,100770.36
2023-05-13T03:01:17.249Z,100773.86
2023-05-13T03:03:47.950Z,100775.77
2023-05-13T03:06:18.372Z,100782.39
2023-05-13T03:08:48.878Z,100780.83
2023-05-13T03:11:19.389Z,100775.23
2023-05-13T03:13:49.750Z,100782.73
2023-05-13T03:16:20.195Z,100783.26
2023-05-13T03:18:50.646Z,100785.88
2023-05-13T03:21:22.071Z,100788.84
2023-05-13T03:23:52.510Z,100793.04
2023-05-13T03:26:23.309Z,100789.89
2023-05-13T03:28:53.735Z,100789.72
2023-05-13T03:31:25.034Z,100791.12
2023-05-13T03:33:56.170Z,100793.90
2023-05-13T03:36:26.454Z,100787.81
2023-05-13T03:38:56.844Z,100786.94
2023-05-13T03:41:28.335Z,100789.04
2023-05-13T03:44:00.344Z,100791.66
2023-05-13T03:46:31.996Z,100789.72
2023-05-13T03:49:02.560Z,100790.06
2023-05-13T03:51:34.385Z,100796.52
2023-05-13T03:54:05.681Z,100796.50
2023-05-13T03:56:36.130Z,100798.57
2023-05-13T03:59:06.425Z,100805.20
2023-05-13T04:01:38.565Z,100799.95
2023-05-13T04:04:08.883Z,100807.77
2023-05-13T04:06:39.282Z,100809.52
2023-05-13T04:09:09.566Z,100811.76
2023-05-13T04:11:39.952Z,100814.69
2023-05-13T04:14:10.480Z,100813.80
2023-05-13T04:16:40.948Z,100818.48
2023-05-13T04:19:12.617Z,100815.99
2023-05-13T04:21:42.938Z,100816.65
2023-05-13T04:24:13.308Z,100820.98
2023-05-13T04:26:43.696Z,100818.83
2023-05-13T04:29:14.841Z,100815.30
2023-05-13T04:31:45.832Z,100818.39
2023-05-13T04:34:16.768Z,100820.27
2023-05-13T04:36:48.805Z,100817.77
2023-05-13T04:39:19.141Z,100818.40
2023-05-13T04:41:49.431Z,100821.33
2023-05-13T04:44:19.805Z,100823.36
2023-05-13T04:46:51.377Z,100822.60
2023-05-13T04:49:21.720Z,100824.63
2023-05-13T04:51:52.322Z,100825.78
2023-05-13T04:54:23.892Z,100820.94
2023-05-13T04:56:54.321Z,100823.48
2023-05-13T04:59:25.298Z,100823.41
2023-05-13T05:01:55.969Z,100826.27
2023-05-13T05:04:28.143Z,100824.16
2023-05-13T05:06:59.153Z,100820.92
2023-05-13T05:09:30.174Z,100822.88
2023-05-13T05:12:00.965Z,100822.24
2023-05-13T05:14:34.144Z,100827.02
2023-05-13T05:17:04.641Z,100825.85
2023-05-13T05:19:35.134Z,100824.88
2023-05-13T05:22:06.490Z,100830.76
2023-05-13T05:24:37.329Z,100831.92
2023-05-13T05:27:08.341Z,100834.64
2023-05-13T05:29:40.057Z,100837.02
2023-05-13T05:32:10.943Z,100843.27
2023-05-13T05:34:41.499Z,100838.45
2023-05-13T05:37:12.898Z,100838.38
2023-05-13T05:39:43.288Z,100846.85
2023-05-13T05:42:14.223Z,100846.86
2023-05-13T05:44:44.543Z,100847.95
2023-05-13T05:47:14.902Z,100853.50
2023-05-13T05:49:45.255Z,100847.22
2023-05-13T05:52:15.986Z,100852.86
2023-05-13T05:54:47.104Z,100854.50
2023-05-13T05:57:17.949Z,100854.60
2023-05-13T05:59:48.322Z,100855.13
2023-05-13T06:02:18.749Z,100854.67
2023-05-13T06:04:49.279Z,100854.39
2023-05-13T06:07:19.697Z,100852.20
2023-05-13T06:09:50.360Z,100853.88
2023-05-13T06:12:20.900Z,100856.34
2023-05-13T06:14:51.355Z,100853.17
2023-05-13T06:17:21.638Z,100848.73
2023-05-13T06:19:52.119Z,100849.23
2023-05-13T06:22:22.440Z,100848.11
2023-05-13T06:24:52.738Z,100848.94
2023-05-13T06:27:23.069Z,100844.58
2023-05-13T06:29:53.403Z,100845.64
2023-05-13T06:32:23.887Z,100847.11
2023-05-13T06:34:55.861Z,100850.48
2023-05-13T06:37:27.027Z,100849.36
2023-05-13T06:39:58.269Z,100851.98
2023-05-13T06:42:28.556Z,100853.22
2023-05-13T06:45:03.077Z,100856.90
2023-05-13T06:47:34.130Z,100854.18
2023-05-13T06:50:05.100Z,100856.52
2023-05-13T06:52:35.407Z,100860.21
2023-05-13T06:55:06.653Z,100860.80
2023-05-13T06:57:43.033Z,100860.53
2023-05-13T07:00:13.962Z,100863.09
2023-05-13T07:02:44.411Z,100866.24
2023-05-13T07:05:15.036Z,100863.13
2023-05-13T07:07:46.002Z,100864.58
2023-05-13T07:10:16.394Z,100857.24
2023-05-13T07:12:46.798Z,100857.29
2023-05-13T07:15:17.483Z,100857.20
2023-05-13T07:17:47.860Z,100853.48
2023-05-13T07:20:22.253Z,100854.46
2023-05-13T07:22:53.464Z,100854.39
2023-05-13T07:25:23.861Z,100854.71
2023-05-13T07:27:54.488Z,100856.23
2023-05-13T07:30:25.303Z,100853.73
2023-05-13T07:32:55.905Z,100852.44
2023-05-13T07:35:26.375Z,100854.50
2023-05-13T07:37:56.733Z,100857.18
2023-05-13T07:40:27.057Z,100857.32
2023-05-13T07:42:57.358Z,100858.15
2023-05-13T07:45:27.797Z,100855.60
2023-05-13T07:47:58.484Z,100860.86
2023-05-13T07:50:28.970Z,100862.41
2023-05-13T07:52:59.409Z,100864.64
2023-05-13T07:55:29.708Z,100864.23
2023-05-13T07:58:00.145Z,100864.20
2023-05-13T08:00:30.568Z,100867.05
2023-05-13T08:03:02.347Z,100869.23
2023-05-13T08:05:32.716Z,100865.38
2023-05-13T08:08:04.021Z,100866.29
2023-05-13T08:10:34.632Z,100867.40
2023-05-13T08:13:05.359Z,100864.80
2023-05-13T08:15:37.026Z,100867.11
2023-05-13T08:18:09.676Z,100870.55
2023-05-13T08:20:40.874Z,100868.34
2023-05-13T08:23:11.597Z,100868.80
2023-05-13T08:25:42.002Z,100872.02
2023-05-13T08:28:12.394Z,100866.51
2023-05-13T08:30:44.307Z,100876.48
2023-05-13T08:33:14.649Z,100869.59
2023-05-13T08:35:45.088Z,100871.33
2023-05-13T08:38:15.530Z,100872.61
2023-05-13T08:40:46.708Z,100876.47
2023-05-13T08:43:18.053Z,100866.77
2023-05-13T08:45:52.260Z,100867.34
2023-05-13T08:48:23.693Z,100869.55
2023-05-13T08:50:54.815Z,100863.99
2023-05-13T08:53:26.516Z,100864.34
2023-05-13T08:55:57.341Z,100869.58
2023-05-13T08:58:29.221Z,100867.30
2023-05-13T09:00:59.971Z,100866.15
2023-05-13T09:03:32.618Z,100867.65
2023-05-13T09:06:04.646Z,100866.56
2023-05-13T09:08:35.434Z,100863.85
2023-05-13T09:11:05.861Z,100861.16
2023-05-13T09:13:36.260Z,100858.92
2023-05-13T09:16:07.394Z,100860.27
2023-05-13T09:18:38.621Z,100861.31
2023-05-13T09:21:29.128Z,100861.37
2023-05-13T09:24:18.180Z,100859.92
2023-05-13T09:26:49.153Z,100862.53
2023-05-13T09:29:24.807Z,100860.52
2023-05-13T09:31:56.648Z,100861.92
2023-05-13T09:34:31.643Z,100858.17
2023-05-13T09:37:03.877Z,100857.89
2023-05-13T09:39:35.717Z,100852.98
2023-05-13T09:42:07.072Z,100851.75
2023-05-13T09:44:37.509Z,100853.27
2023-05-13T09:47:08.119Z,100855.11
2023-05-13T09:49:38.513Z,100855.83
2023-05-13T09:52:11.831Z,100854.52
2023-05-13T09:54:42.333Z,100853.33
2023-05-13T09:57:15.811Z,100849.89
2023-05-13T09:59:46.166Z,100848.95
2023-05-13T10:02:19.470Z,100849.42
2023-05-13T10:04:49.920Z,100847.79
2023-05-13T10:07:24.537Z,100846.86
2023-05-13T10:09:58.115Z,100844.92
2023-05-13T10:12:29.727Z,100840.99
2023-05-13T10:15:02.743Z,100836.45
2023-05-13T10:17:34.511Z,100833.13
2023-05-13T10:20:05.980Z,100834.06
2023-05-13T10:22:37.145Z,100829.55
2023-05-13T10:25:09.319Z,100826.11
2023-05-13T10:27:41.039Z,100832.44
2023-05-13T10:30:14.291Z,100829.27
2023-05-13T10:32:44.679Z,100827.66
2023-05-13T10:36:08.587Z,100829.45
2023-05-13T10:39:12.751Z,100832.28
2023-05-13T10:42:15.513Z,100826.99
2023-05-13T10:44:45.983Z,100832.48
2023-05-13T10:47:17.990Z,100830.94
2023-05-13T10:49:53.770Z,100830.09
2023-05-13T10:52:24.188Z,100826.54
2023-05-13T10:55:05.061Z,100829.14
2023-05-13T10:57:39.969Z,100826.52
2023-05-13T11:00:19.137Z,100821.39
2023-05-13T11:02:53.293Z,100826.03
2023-05-13T11:05:24.302Z,100822.23
2023-05-13T11:08:00.967Z,100825.20
2023-05-13T11:10:31.863Z,100823.68
2023-05-13T11:13:24.761Z,100823.39
2023-05-13T11:15:56.092Z,100828.16
2023-05-13T11:18:34.443Z,100825.75
2023-05-13T11:21:07.561Z,100828.98
2023-05-13T11:23:54.342Z,100827.41
2023-05-13T11:26:25.009Z,100828.48
2023-05-13T11:29:05.147Z,100822.45
2023-05-13T11:31:50.500Z,100821.35
2023-05-13T11:34:21.654Z,100823.16
2023-05-13T11:36:55.425Z,100820.45
2023-05-13T11:39:27.431Z,100826.85
2023-05-13T11:42:01.381Z,100826.05
2023-05-13T11:44:31.983Z,100825.20
2023-05-13T11:47:05.975Z,100821.80
2023-05-13T11:49:38.740Z,100822.08
2023-05-13T11:52:11.231Z,100821.44
2023-05-13T11:54:48.530Z,100820.80
2023-05-13T11:57:21.767Z,100824.56
2023-05-13T11:59:57.612Z,100823.56
2023-05-13T12:02:30.181Z,100820.82
2023-05-13T12:05:05.088Z,100821.34
2023-05-13T12:07:37.432Z,100819.75
2023-05-13T12:10:09.808Z,100818.88
2023-05-13T12:12:41.810Z,100818.64
2023-05-13T12:15:15.350Z,100816.95
2023-05-13T12:17:46.400Z,100816.22
2023-05-13T12:20:18.239Z,100817.23
2023-05-13T12:22:57.846Z,100812.70
2023-05-13T12:25:41.927Z,100811.80
2023-05-13T12:28:16.771Z,100819.59
2023-05-13T12:30:53.410Z,100814.88
2023-05-13T12:33:25.726Z,100815.05
2023-05-13T12:36:16.097Z,100814.96
2023-05-13T12:39:00.530Z,100816.77
2023-05-13T12:41:32.526Z,100816.29
2023-05-13T12:44:05.034Z,100819.70
2023-05-13T12:46:35.877Z,100820.17
2023-05-13T12:49:07.062Z,100818.13
2023-05-13T12:51:37.369Z,100818.77
2023-05-13T12:54:08.030Z,100825.30
2023-05-13T12:56:40.104Z,100824.94
2023-05-13T12:59:10.796Z,100821.03
2023-05-13T13:01:42.417Z,100824.02
2023-05-13T13:04:13.182Z,100826.80
2023-05-13T13:06:43.952Z,100823.48
2023-05-13T13:09:14.253Z,100822.23
2023-05-13T13:11:44.568Z,100821.38
2023-05-13T13:14:14.974Z,100826.28
2023-05-13T13:16:45.503Z,100829.20
2023-05-13T13:19:15.852Z,100823.62
2023-05-13T13:21:46.370Z,100820.41
2023-05-13T13:24:16.739Z,100816.39
2023-05-13T13:26:47.152Z,100811.29
2023-05-13T13:29:17.473Z,100811.73
2023-05-13T13:31:47.932Z,100818.19
2023-05-13T13:34:18.322Z,100823.48
2023-05-13T13:36:48.968Z,100827.87
2023-05-13T13:39:19.256Z,100827.90
2023-05-13T13:41:49.659Z,100830.98
2023-05-13T13:44:20.089Z,100828.09
2023-05-13T13:46:50.850Z,100825.08
2023-05-13T13:49:23.982Z,100823.45
2023-05-13T13:51:55.219Z,100827.69
2023-05-13T13:54:25.547Z,100826.09
2023-05-13T13:56:56.008Z,100825.66
2023-05-13T13:59:26.366Z,100830.86
2023-05-13T14:01:57.058Z,100829.01
2023-05-13T14:04:30.297Z,100829.42
2023-05-13T14:07:00.823Z,100829.69
2023-05-13T14:09:32.797Z,100828.08
2023-05-13T14:12:03.178Z,100829.38
2023-05-13T14:14:33.530Z,100831.00
2023-05-13T14:17:03.925Z,100828.21
2023-05-13T14:19:34.335Z,100826.40
2023-05-13T14:22:04.831Z,100824.59
2023-05-13T14:24:35.140Z,100818.73
2023-05-13T14:27:06.244Z,100820.73
2023-05-13T14:29:37.214Z,100821.77
2023-05-13T14:32:08.614Z,100820.64
2023-05-13T14:34:38.968Z,100816.39
2023-05-13T14:37:09.792Z,100808.59
2023-05-13T14:39:40.227Z,100809.48
2023-05-13T14:42:11.681Z,100811.33
2023-05-13T14:44:42.306Z,100805.31
2023-05-13T14:47:12.915Z,100802.02
2023-05-13T14:49:43.303Z,100788.56
2023-05-13T14:52:13.923Z,100779.32
2023-05-13T14:54:44.379Z,100782.83
2023-05-13T14:57:14.721Z,100783.36
2023-05-13T14:59:45.111Z,100788.48
2023-05-13T15:02:17.238Z,100787.02
2023-05-13T15:04:47.891Z,100783.97
2023-05-13T15:07:18.433Z,100781.98
2023-05-13T15:09:48.856Z,100770.69
2023-05-13T15:12:19.259Z,100777.76
2023-05-13T15:14:55.425Z,100780.02
2023-05-13T15:17:25.891Z,100776.39
2023-05-13T15:19:56.287Z,100780.02
2023-05-13T15:22:26.714Z,100782.75
2023-05-13T15:24:57.063Z,100784.77
2023-05-13T15:27:28.893Z,100782.86
2023-05-13T15:29:59.313Z,100786.06
2023-05-13T15:32:30.195Z,100779.50
2023-05-13T15:35:00.756Z,100780.83
2023-05-13T15:37:32.037Z,100782.11
2023-05-13T15:40:02.731Z,100786.49
2023-05-13T15:42:33.131Z,100786.64
2023-05-13T15:45:03.392Z,100786.05
2023-05-13T15:47:33.815Z,100787.82
2023-05-13T15:50:04.870Z,100789.84
2023-05-13T15:52:35.756Z,100785.02
2023-05-13T15:55:07.869Z,100788.30
2023-05-13T15:57:39.728Z,100785.61
2023-05-13T16:00:12.505Z,100782.73
2023-05-13T16:02:44.102Z,100782.11
2023-05-13T16:05:19.306Z,100778.73
2023-05-13T16:07:49.704Z,100773.95
2023-05-13T16:10:20.223Z,100767.17
2023-05-13T16:12:50.940Z,100775.46
2023-05-13T16:15:21.356Z,100773.48
2023-05-13T16:17:51.819Z,100771.40
2023-05-13T16:20:22.535Z,100776.36
2023-05-13T16:22:53.260Z,100774.40
2023-05-13T16:25:24.972Z,100777.45
2023-05-13T16:27:56.686Z,100776.59
2023-05-13T16:30:27.478Z,100776.69
2023-05-13T16:32:57.940Z,100774.67
2023-05-13T16:35:28.355Z,100768.61
2023-05-13T16:37:58.755Z,100765.67
2023-05-13T16:40:29.101Z,100768.39
2023-05-13T16:43:02.563Z,100766.54
2023-05-13T16:45:34.224Z,100763.40
2023-05-13T16:48:04.871Z,100764.23
2023-05-13T16:50:35.845Z,100766.19
2023-05-13T16:53:06.436Z,100763.41
2023-05-13T16:55:36.725Z,100764.46
2023-05-13T16:58:07.124Z,100763.80
2023-05-13T17:00:37.461Z,100763.91
2023-05-13T17:03:07.987Z,100767.17
2023-05-13T17:05:38.635Z,100764.41
2023-05-13T17:08:09.338Z,100765.27
2023-05-13T17:10:39.765Z,100760.74
2023-05-13T17:13:10.178Z,100759.52
2023-05-13T17:15:40.607Z,100761.06
2023-05-13T17:18:11.055Z,100760.58
2023-05-13T17:20:41.399Z,100763.09
2023-05-13T17:23:11.794Z,100765.43
2023-05-13T17:25:42.114Z,100763.19
2023-05-13T17:28:12.532Z,100764.18
2023-05-13T17:30:43.369Z,100756.50
2023-05-13T17:33:13.785Z,100757.41
2023-05-13T17:35:44.602Z,100755.37
2023-05-13T17:38:15.045Z,100756.35
2023-05-13T17:40:45.636Z,100753.66
2023-05-13T17:43:15.994Z,100751.91
2023-05-13T17:45:46.396Z,100752.06
2023-05-13T17:48:16.878Z,100751.35
2023-05-13T17:50:47.456Z,100756.66
2023-05-13T17:53:17.794Z,100752.72
2023-05-13T17:55:48.719Z,100756.55
2023-05-13T17:58:19.247Z,100754.20
2023-05-13T18:00:49.846Z,100751.20
2023-05-13T18:03:21.724Z,100758.30
2023-05-13T18:05:52.207Z,100760.54
2023-05-13T18:08:22.644Z,100762.14
2023-05-13T18:10:52.944Z,100763.73
2023-05-13T18:13:23.312Z,100763.85
2023-05-13T18:15:53.744Z,100766.30
2023-05-13T18:18:24.297Z,100770.75
2023-05-13T18:20:54.638Z,100771.20
2023-05-13T18:23:25.019Z,100772.92
2023-05-13T18:25:56.441Z,100774.13
2023-05-13T18:28:27.279Z,100774.98
2023-05-13T18:30:57.606Z,100777.87
2023-05-13T18:33:27.925Z,100774.62
2023-05-13T18:35:58.315Z,100779.96
2023-05-13T18:38:28.722Z,100781.60
2023-05-13T18:41:03.291Z,100784.02
2023-05-13T18:43:33.714Z,100784.34
2023-05-13T18:46:04.126Z,100790.21
2023-05-13T18:48:34.471Z,100795.78
2023-05-13T18:51:04.998Z,100799.09
2023-05-13T18:53:35.435Z,100801.20
2023-05-13T18:56:06.278Z,100802.64
2023-05-13T18:58:36.584Z,100805.41
2023-05-13T19:01:07.594Z,100802.82
2023-05-13T19:03:38.133Z,100806.48
2023-05-13T19:06:09.004Z,100809.64
2023-05-13T19:08:39.376Z,100809.42
2023-05-13T19:11:09.712Z,100813.22
2023-05-13T19:16:16.516Z,100815.73
2023-05-13T19:18:47.981Z,100815.05
2023-05-13T19:21:18.461Z,100818.60
2023-05-13T19:23:48.868Z,100813.19
2023-05-13T19:26:19.343Z,100812.91
2023-05-13T19:28:50.433Z,100816.65
2023-05-13T19:31:22.005Z,100823.19
2023-05-13T19:33:52.442Z,100824.33
2023-05-13T19:36:26.041Z,100829.15
2023-05-13T19:38:57.723Z,100832.73
2023-05-13T19:41:28.065Z,100828.34
2023-05-13T19:43:58.394Z,100833.61
2023-05-13T19:46:29.898Z,100832.54
2023-05-13T19:49:00.238Z,100836.51
2023-05-13T19:51:31.038Z,100837.50
2023-05-13T19:54:01.859Z,100840.42
2023-05-13T19:56:33.089Z,100838.48
2023-05-13T19:59:03.546Z,100839.05
2023-05-13T20:01:33.933Z,100836.72
2023-05-13T20:04:04.480Z,100835.84
2023-05-13T20:06:34.889Z,100834.05
2023-05-13T20:09:05.941Z,100836.36
2023-05-13T20:11:36.345Z,100834.98
2023-05-13T20:14:06.680Z,100833.92
2023-05-13T20:16:37.331Z,100834.61
2023-05-13T20:19:08.418Z,100832.34
2023-05-13T20:21:38.759Z,100829.03
2023-05-13T20:24:09.454Z,100830.23
2023-05-13T20:26:39.871Z,100830.06
2023-05-13T20:29:12.553Z,100832.45
2023-05-13T20:31:43.316Z,100825.18
2023-05-13T20:34:13.759Z,100822.80
2023-05-13T20:36:44.191Z,100820.08
2023-05-13T20:39:14.594Z,100823.49
2023-05-13T20:41:44.892Z,100826.45
2023-05-13T20:44:16.957Z,100824.25
2023-05-13T20:46:47.414Z,100820.80
2023-05-13T20:49:18.418Z,100818.58
2023-05-13T20:51:50.437Z,100820.02
2023-05-13T20:54:20.805Z,100819.04
2023-05-13T20:56:51.154Z,100816.14
2023-05-13T20:59:21.524Z,100819.18
2023-05-13T21:01:51.878Z,100825.36
2023-05-13T21:04:22.386Z,100820.28
2023-05-13T21:06:52.994Z,100825.02
2023-05-13T21:09:23.493Z,100827.64
2023-05-13T21:11:53.831Z,100828.70
2023-05-13T21:14:24.175Z,100823.98
2023-05-13T21:16:54.568Z,100822.41
2023-05-13T21:19:25.987Z,100825.04
2023-05-13T21:21:57.734Z,100825.23
2023-05-13T21:24:28.188Z,100826.13
2023-05-13T21:26:58.540Z,100822.65
2023-05-13T21:29:30.206Z,100823.54
2023-05-13T21:32:00.596Z,100823.77
2023-05-13T21:34:30.948Z,100822.80
2023-05-13T21:37:01.717Z,100822.57
2023-05-13T21:39:32.079Z,100821.09
2023-05-13T21:42:03.339Z,100824.65
2023-05-13T21:44:33.763Z,100821.78
2023-05-13T21:47:04.093Z,100816.45
2023-05-13T21:49:34.458Z,100816.85
2023-05-13T21:52:08.079Z,100816.52
2023-05-13T21:54:38.535Z,100817.39
2023-05-13T21:57:11.171Z,100815.63
2023-05-13T21:59:41.599Z,100813.17
2023-05-13T22:02:12.029Z,100815.64
2023-05-13T22:04:42.346Z,100814.40
2023-05-13T22:07:12.663Z,100813.14
2023-05-13T22:09:42.994Z,100814.16
2023-05-13T22:12:13.518Z,100815.34
2023-05-13T22:14:43.902Z,100815.48
2023-05-13T22:17:14.325Z,100815.46
2023-05-13T22:19:44.950Z,100817.04
2023-05-13T22:22:15.482Z,100814.61
2023-05-13T22:24:45.802Z,100809.21
2023-05-13T22:27:16.168Z,100811.48
2023-05-13T22:29:46.545Z,100810.27
2023-05-13T22:32:17.047Z,100812.92
2023-05-13T22:34:47.418Z,100807.86
2023-05-13T22:37:17.689Z,100804.72
2023-05-13T22:39:48.059Z,100802.50
2023-05-13T22:42:18.529Z,100798.71
2023-05-13T22:44:48.869Z,100798.23
2023-05-13T22:47:19.166Z,100796.55
2023-05-13T22:49:49.519Z,100801.16
2023-05-13T22:52:19.874Z,100798.38
2023-05-13T22:54:50.242Z,100801.55
2023-05-13T22:57:21.402Z,100805.96
2023-05-13T22:59:51.696Z,100801.28
2023-05-13T23:02:22.016Z,100805.35
2023-05-13T23:04:53.390Z,100805.73
2023-05-13T23:07:24.091Z,100806.60
2023-05-13T23:09:54.450Z,100808.73
2023-05-13T23:12:24.817Z,100805.09
2023-05-13T23:14:55.436Z,100807.41
2023-05-13T23:17:25.876Z,100804.48
2023-05-13T23:19:56.376Z,100802.41
2023-05-13T23:22:26.996Z,100801.37
2023-05-13T23:24:57.351Z,100801.73
2023-05-13T23:27:27.664Z,100796.17
2023-05-13T23:30:00.144Z,100794.98
2023-05-13T23:32:30.565Z,100791.33
2023-05-13T23:35:01.307Z,100789.98
2023-05-13T23:37:32.191Z,100789.86
2023-05-13T23:40:02.533Z,100787.14
2023-05-13T23:42:32.854Z,100787.70
2023-05-13T23:45:03.390Z,100788.80
2023-05-13T23:47:33.716Z,100788.30
2023-05-13T23:50:04.935Z,100787.98
2023-05-13T23:52:35.496Z,100787.48
2023-05-13T23:55:07.125Z,100785.21
2023-05-13T23:57:37.499Z,100784.51
